createdAt,value
2023-05-10T00:02:15.371Z,3.10
2023-05-10T00:04:49.513Z,4.20
2023-05-10T00:07:22.702Z,3.55
2023-05-10T00:09:55.485Z,3.13
2023-05-10T00:12:28.317Z,4.35
2023-05-10T00:15:01.098Z,3.42
2023-05-10T00:17:33.947Z,3.15
2023-05-10T00:20:09.272Z,3.20
2023-05-10T00:22:42.468Z,3.75
2023-05-10T00:25:15.347Z,2.58
2023-05-10T00:27:48.399Z,4.38
2023-05-10T00:30:21.442Z,5.93
2023-05-10T00:32:54.437Z,3.75
2023-05-10T00:35:28.818Z,5.82
2023-05-10T00:38:01.616Z,4.57
2023-05-10T00:40:34.448Z,6.50
2023-05-10T00:43:11.066Z,7.05
2023-05-10T00:45:44.170Z,7.40
2023-05-10T00:48:18.587Z,7.22
2023-05-10T00:50:52.885Z,7.65
2023-05-10T00:53:26.811Z,7.00
2023-05-10T00:56:00.332Z,7.50
2023-05-10T00:58:33.265Z,6.13
2023-05-10T01:01:06.845Z,6.82
2023-05-10T01:03:40.972Z,7.05
2023-05-10T01:06:15.295Z,6.60
2023-05-10T01:08:48.607Z,7.60
2023-05-10T01:11:21.784Z,5.63
2023-05-10T01:14:00.333Z,3.10
2023-05-10T01:16:38.368Z,4.15
2023-05-10T01:19:18.931Z,3.78
2023-05-10T01:22:01.566Z,3.90
2023-05-10T01:25:16.099Z,2.47
2023-05-10T01:28:17.203Z,3.28
2023-05-10T01:31:10.546Z,3.22
2023-05-10T01:33:52.488Z,2.42
2023-05-10T01:36:32.473Z,2.72
2023-05-10T01:39:13.547Z,2.00
2023-05-10T01:41:51.706Z,2.63
2023-05-10T01:44:33.444Z,3.38
2023-05-10T01:47:12.028Z,2.00
2023-05-10T01:49:51.215Z,2.30
2023-05-10T01:52:32.137Z,2.97
2023-05-10T01:55:08.274Z,2.90
2023-05-10T01:57:44.260Z,2.20
2023-05-10T02:00:18.276Z,2.90
2023-05-10T02:02:52.648Z,3.65
2023-05-10T02:05:28.693Z,1.83
2023-05-10T02:08:04.991Z,1.55
2023-05-10T02:10:38.850Z,1.85
2023-05-10T02:13:13.465Z,2.40
2023-05-10T02:15:50.279Z,1.30
2023-05-10T02:18:25.942Z,2.05
2023-05-10T02:21:01.580Z,1.30
2023-05-10T02:23:35.944Z,1.67
2023-05-10T02:26:09.968Z,1.38
2023-05-10T02:28:44.332Z,2.65
2023-05-10T02:31:17.630Z,2.67
2023-05-10T02:33:51.197Z,2.35
2023-05-10T02:36:28.479Z,1.63
2023-05-10T02:39:04.062Z,1.67
2023-05-10T02:41:38.174Z,2.20
2023-05-10T02:44:11.398Z,1.83
2023-05-10T02:46:44.495Z,1.92
2023-05-10T02:49:17.680Z,1.27
2023-05-10T02:51:57.611Z,1.73
2023-05-10T02:54:38.622Z,2.75
2023-05-10T02:57:19.033Z,4.75
2023-05-10T02:59:52.364Z,4.65
2023-05-10T03:02:25.329Z,1.92
2023-05-10T03:04:58.314Z,3.08
2023-05-10T03:07:33.368Z,4.28
2023-05-10T03:12:53.883Z,2.47
2023-05-10T03:15:35.608Z,4.35
2023-05-10T03:18:12.723Z,2.92
2023-05-10T03:20:50.589Z,4.10
2023-05-10T03:23:32.039Z,4.15
2023-05-10T03:26:06.380Z,4.53
2023-05-10T03:28:40.489Z,5.30
2023-05-10T03:31:14.380Z,4.30
2023-05-10T03:33:51.421Z,5.70
2023-05-10T03:36:29.574Z,5.93
2023-05-10T03:39:04.310Z,8.55
2023-05-10T03:41:37.244Z,6.22
2023-05-10T03:44:10.098Z,7.10
2023-05-10T03:46:43.078Z,7.95
2023-05-10T03:49:17.078Z,8.93
2023-05-10T03:51:50.752Z,10.68
2023-05-10T03:54:24.986Z,11.85
2023-05-10T03:56:57.779Z,12.10
2023-05-10T03:59:30.828Z,12.98
2023-05-10T04:02:03.962Z,16.67
2023-05-10T04:04:37.096Z,14.48
2023-05-10T04:07:11.260Z,16.02
2023-05-10T04:09:45.939Z,17.63
2023-05-10T04:12:18.714Z,16.55
2023-05-10T04:14:52.050Z,16.73
2023-05-10T04:17:24.826Z,19.10
2023-05-10T04:19:58.055Z,21.02
2023-05-10T04:22:30.816Z,22.65
2023-05-10T04:25:05.774Z,19.50
2023-05-10T04:27:39.114Z,22.30
2023-05-10T04:30:12.937Z,18.75
2023-05-10T04:32:45.938Z,21.02
2023-05-10T04:35:18.920Z,21.08
2023-05-10T04:37:52.346Z,21.13
2023-05-10T04:40:26.443Z,22.00
2023-05-10T04:42:59.195Z,19.75
2023-05-10T04:45:31.978Z,17.08
2023-05-10T04:48:05.054Z,26.45
2023-05-10T04:50:37.880Z,23.60
2023-05-10T04:53:10.699Z,24.30
2023-05-10T04:55:45.113Z,24.98
2023-05-10T04:58:18.152Z,28.33
2023-05-10T05:00:50.945Z,22.90
2023-05-10T05:03:24.120Z,28.90
2023-05-10T05:05:56.916Z,27.55
2023-05-10T05:08:29.837Z,28.77
2023-05-10T05:11:04.130Z,26.27
2023-05-10T05:13:36.927Z,31.77
2023-05-10T05:16:09.994Z,25.60
2023-05-10T05:18:42.781Z,32.42
2023-05-10T05:21:16.928Z,33.80
2023-05-10T05:23:49.690Z,31.65
2023-05-10T05:26:23.866Z,34.08
2023-05-10T05:28:56.766Z,30.80
2023-05-10T05:31:29.663Z,37.28
2023-05-10T05:34:02.495Z,33.90
2023-05-10T05:36:39.269Z,38.80
2023-05-10T05:39:12.020Z,33.22
2023-05-10T05:41:47.223Z,37.53
2023-05-10T05:44:20.004Z,33.22
2023-05-10T05:46:52.835Z,33.10
2023-05-10T05:49:25.851Z,28.08
2023-05-10T05:52:00.881Z,27.48
2023-05-10T05:54:33.892Z,35.25
2023-05-10T05:57:08.391Z,29.38
2023-05-10T05:59:44.652Z,32.50
2023-05-10T06:02:20.899Z,33.83
2023-05-10T06:04:53.731Z,31.95
2023-05-10T06:07:26.732Z,28.95
2023-05-10T06:09:59.793Z,32.65
2023-05-10T06:12:33.957Z,34.03
2023-05-10T06:15:07.644Z,33.28
2023-05-10T06:17:41.165Z,29.73
2023-05-10T06:20:15.053Z,27.77
2023-05-10T06:22:48.125Z,29.13
2023-05-10T06:25:21.040Z,32.95
2023-05-10T06:27:58.525Z,28.85
2023-05-10T06:30:31.586Z,37.72
2023-05-10T06:33:04.805Z,32.78
2023-05-10T06:35:37.822Z,39.88
2023-05-10T06:38:10.592Z,33.90
2023-05-10T06:40:44.053Z,36.55
2023-05-10T06:43:18.408Z,42.63
2023-05-10T06:45:51.321Z,36.58
2023-05-10T06:48:24.345Z,42.40
2023-05-10T06:50:57.162Z,38.25
2023-05-10T06:53:31.317Z,40.37
2023-05-10T06:56:04.695Z,35.65
2023-05-10T06:58:38.972Z,38.08
2023-05-10T07:01:11.929Z,34.63
2023-05-10T07:03:44.829Z,33.20
2023-05-10T07:06:29.297Z,37.35
2023-05-10T07:09:06.091Z,38.00
2023-05-10T07:11:39.324Z,34.63
2023-05-10T07:14:13.518Z,34.67
2023-05-10T07:16:46.440Z,33.92
2023-05-10T07:19:19.474Z,31.63
2023-05-10T07:21:52.343Z,27.42
2023-05-10T07:24:25.317Z,32.80
2023-05-10T07:26:58.116Z,40.70
2023-05-10T07:29:32.255Z,32.70
2023-05-10T07:32:05.393Z,32.95
2023-05-10T07:34:38.226Z,35.08
2023-05-10T07:37:11.723Z,36.17
2023-05-10T07:39:44.517Z,32.88
2023-05-10T07:42:17.463Z,33.88
2023-05-10T07:44:52.007Z,34.38
2023-05-10T07:47:24.813Z,31.30
2023-05-10T07:49:57.645Z,29.10
2023-05-10T07:52:30.402Z,30.98
2023-05-10T07:55:03.246Z,25.30
2023-05-10T07:57:36.135Z,27.52
2023-05-10T08:00:14.613Z,30.45
2023-05-10T08:02:48.501Z,27.42
2023-05-10T08:05:21.330Z,28.48
2023-05-10T08:07:54.178Z,30.45
2023-05-10T08:10:27.460Z,27.50
2023-05-10T08:13:00.572Z,29.90
2023-05-10T08:15:34.853Z,26.17
2023-05-10T08:18:07.810Z,25.38
2023-05-10T08:20:40.630Z,27.00
2023-05-10T08:23:14.328Z,29.45
2023-05-10T08:25:47.125Z,26.20
2023-05-10T08:28:19.880Z,26.85
2023-05-10T08:30:54.405Z,28.80
2023-05-10T08:33:27.347Z,23.67
2023-05-10T08:36:00.247Z,24.17
2023-05-10T08:38:33.326Z,26.05
2023-05-10T08:41:07.649Z,24.83
2023-05-10T08:43:42.444Z,26.83
2023-05-10T08:48:52.484Z,23.15
2023-05-10T08:51:27.699Z,23.45
2023-05-10T08:54:01.482Z,23.95
2023-05-10T08:56:34.406Z,22.83
2023-05-10T08:59:07.261Z,23.65
2023-05-10T09:01:44.972Z,26.58
2023-05-10T09:04:18.050Z,25.50
2023-05-10T09:06:50.960Z,24.15
2023-05-10T09:09:24.131Z,24.02
2023-05-10T09:11:57.272Z,23.40
2023-05-10T09:14:31.122Z,24.15
2023-05-10T09:17:06.427Z,25.80
2023-05-10T09:19:40.175Z,24.55
2023-05-10T09:22:13.664Z,22.98
2023-05-10T09:24:46.817Z,26.02
2023-05-10T09:27:28.226Z,24.92
2023-05-10T09:30:01.143Z,27.50
2023-05-10T09:32:43.152Z,27.50
2023-05-10T09:35:18.504Z,25.58
2023-05-10T09:37:52.526Z,23.48
2023-05-10T09:40:27.622Z,21.60
2023-05-10T09:45:38.248Z,21.02
2023-05-10T09:48:17.027Z,21.85
2023-05-10T09:51:15.751Z,20.85
2023-05-10T09:54:12.284Z,18.83
2023-05-10T09:56:46.616Z,18.95
2023-05-10T09:59:21.222Z,19.33
2023-05-10T10:01:54.851Z,17.17
2023-05-10T10:04:30.844Z,20.60
2023-05-10T10:07:06.117Z,19.45
2023-05-10T10:09:39.040Z,22.17
2023-05-10T10:12:12.024Z,19.13
2023-05-10T10:14:45.413Z,17.90
2023-05-10T10:17:19.439Z,17.98
2023-05-10T10:19:54.350Z,20.02
2023-05-10T10:22:27.659Z,18.40
2023-05-10T10:25:01.920Z,22.83
2023-05-10T10:27:44.540Z,24.23
2023-05-10T10:30:28.128Z,19.42
2023-05-10T10:33:28.402Z,20.30
2023-05-10T10:36:05.322Z,21.00
2023-05-10T10:38:41.056Z,19.92
2023-05-10T10:41:31.058Z,21.75
2023-05-10T10:44:35.680Z,22.13
2023-05-10T10:47:25.870Z,23.48
2023-05-10T10:50:07.599Z,21.45
2023-05-10T10:52:42.540Z,22.77
2023-05-10T10:55:19.131Z,20.27
2023-05-10T10:57:54.426Z,21.48
2023-05-10T11:00:29.923Z,19.80
2023-05-10T11:03:07.407Z,18.08
2023-05-10T11:05:42.384Z,19.48
2023-05-10T11:08:19.215Z,23.02
2023-05-10T11:11:05.465Z,18.00
2023-05-10T11:13:42.779Z,16.13
2023-05-10T11:16:20.387Z,14.43
2023-05-10T11:19:00.504Z,16.75
2023-05-10T11:21:34.733Z,13.95
2023-05-10T11:24:15.662Z,17.08
2023-05-10T11:26:52.315Z,17.00
2023-05-10T11:29:27.089Z,15.68
2023-05-10T11:32:01.157Z,14.15
2023-05-10T11:34:34.966Z,17.02
2023-05-10T11:37:08.228Z,14.52
2023-05-10T11:39:48.154Z,15.43
2023-05-10T11:42:21.023Z,14.57
2023-05-10T11:44:54.267Z,13.82
2023-05-10T11:47:27.461Z,11.00
2023-05-10T11:50:00.934Z,13.80
2023-05-10T11:52:38.098Z,13.25
2023-05-10T11:55:12.371Z,11.40
2023-05-10T11:57:46.848Z,11.57
2023-05-10T12:02:53.077Z,12.80
2023-05-10T12:05:26.356Z,10.18
2023-05-10T12:08:13.184Z,10.02
2023-05-10T12:10:47.622Z,11.75
2023-05-10T12:19:09.893Z,7.83
2023-05-10T12:21:43.515Z,9.32
2023-05-10T12:24:18.662Z,10.27
2023-05-10T12:26:53.134Z,10.43
2023-05-10T12:29:25.941Z,9.38
2023-05-10T12:32:00.970Z,11.38
2023-05-10T12:34:35.899Z,12.00
2023-05-10T12:37:09.096Z,10.57
2023-05-10T12:39:43.068Z,11.23
2023-05-10T12:42:17.205Z,9.32
2023-05-10T12:44:50.178Z,12.98
2023-05-10T12:47:22.963Z,11.88
2023-05-10T12:49:55.815Z,10.02
2023-05-10T12:52:28.721Z,11.02
2023-05-10T12:55:02.189Z,10.73
2023-05-10T12:57:36.430Z,12.53
2023-05-10T13:00:10.479Z,11.38
2023-05-10T13:02:43.380Z,12.85
2023-05-10T13:05:16.186Z,11.52
2023-05-10T13:07:49.354Z,10.00
2023-05-10T13:10:23.467Z,12.15
2023-05-10T13:12:57.747Z,11.70
2023-05-10T13:15:30.574Z,11.30
2023-05-10T13:18:03.510Z,11.10
2023-05-10T13:20:36.580Z,10.00
2023-05-10T13:23:09.405Z,12.23
2023-05-10T13:25:42.246Z,11.90
2023-05-10T13:28:16.375Z,10.10
2023-05-10T13:30:49.171Z,12.85
2023-05-10T13:33:21.970Z,10.15
2023-05-10T13:35:55.848Z,10.95
2023-05-10T13:38:28.807Z,10.50
2023-05-10T13:41:01.958Z,10.95
2023-05-10T13:43:36.921Z,9.48
2023-05-10T13:46:10.352Z,10.98
2023-05-10T13:48:43.197Z,10.55
2023-05-10T13:51:16.004Z,10.93
2023-05-10T13:53:48.976Z,10.25
2023-05-10T13:56:21.873Z,11.85
2023-05-10T13:58:56.104Z,10.95
2023-05-10T14:01:28.931Z,11.43
2023-05-10T14:04:02.036Z,14.88
2023-05-10T14:06:34.926Z,11.23
2023-05-10T14:09:07.853Z,11.15
2023-05-10T14:11:43.920Z,12.65
2023-05-10T14:14:18.117Z,11.00
2023-05-10T14:16:50.956Z,9.68
2023-05-10T14:19:23.795Z,10.48
2023-05-10T14:21:56.549Z,15.20
2023-05-10T14:24:29.514Z,13.50
2023-05-10T14:27:02.352Z,12.32
2023-05-10T14:29:36.560Z,10.55
2023-05-10T14:32:09.437Z,9.65
2023-05-10T14:34:42.207Z,6.75
2023-05-10T14:37:16.039Z,7.25
2023-05-10T14:39:48.937Z,8.60
2023-05-10T14:42:22.224Z,7.13
2023-05-10T14:44:56.407Z,8.48
2023-05-10T14:50:02.806Z,8.13
2023-05-10T14:52:35.842Z,8.60
2023-05-10T14:55:09.818Z,7.10
2023-05-10T14:57:43.039Z,7.80
2023-05-10T15:00:20.160Z,8.60
2023-05-10T15:02:54.084Z,6.90
2023-05-10T15:05:27.544Z,7.65
2023-05-10T15:08:00.872Z,7.20
2023-05-10T15:10:34.624Z,6.93
2023-05-10T15:13:07.525Z,6.88
2023-05-10T15:15:41.705Z,6.53
2023-05-10T15:18:15.060Z,6.20
2023-05-10T15:20:47.877Z,6.90
2023-05-10T15:23:20.719Z,7.50
2023-05-10T15:25:56.340Z,6.45
2023-05-10T15:28:29.333Z,5.72
2023-05-10T15:31:03.894Z,7.35
2023-05-10T15:33:37.973Z,5.60
2023-05-10T15:36:10.960Z,5.97
2023-05-10T15:38:43.991Z,7.97
2023-05-10T15:41:16.793Z,5.72
2023-05-10T15:43:49.869Z,5.80
2023-05-10T15:46:24.122Z,6.28
2023-05-10T15:48:57.185Z,8.25
2023-05-10T15:51:29.988Z,6.53
2023-05-10T15:54:07.678Z,7.35
2023-05-10T15:56:42.224Z,7.85
2023-05-10T15:59:14.984Z,6.45
2023-05-10T16:01:49.716Z,6.50
2023-05-10T16:04:24.275Z,6.20
2023-05-10T16:06:57.157Z,5.40
2023-05-10T16:09:30.074Z,6.90
2023-05-10T16:12:03.378Z,5.47
2023-05-10T16:14:36.292Z,6.00
2023-05-10T16:17:11.561Z,4.63
2023-05-10T16:19:44.519Z,7.30
2023-05-10T16:22:17.458Z,7.25
2023-05-10T16:24:53.488Z,7.63
2023-05-10T16:27:28.575Z,5.68
2023-05-10T16:30:01.558Z,6.18
2023-05-10T16:32:36.085Z,5.72
2023-05-10T16:35:10.048Z,6.40
2023-05-10T16:37:42.820Z,5.70
2023-05-10T16:40:15.754Z,6.43
2023-05-10T16:42:48.617Z,7.05
2023-05-10T16:45:21.439Z,6.43
2023-05-10T16:47:55.956Z,7.40
2023-05-10T16:50:28.975Z,7.43
2023-05-10T16:53:01.939Z,6.72
2023-05-10T16:55:34.994Z,6.28
2023-05-10T16:58:07.818Z,5.20
2023-05-10T17:00:40.610Z,8.20
2023-05-10T17:03:15.219Z,7.20
2023-05-10T17:05:48.215Z,8.10
2023-05-10T17:08:21.510Z,7.38
2023-05-10T17:10:54.343Z,8.90
2023-05-10T17:13:27.820Z,8.52
2023-05-10T17:16:03.535Z,8.77
2023-05-10T17:18:37.967Z,6.97
2023-05-10T17:21:11.392Z,7.13
2023-05-10T17:23:44.845Z,6.85
2023-05-10T17:26:17.628Z,5.05
2023-05-10T17:28:50.442Z,5.72
2023-05-10T17:31:23.491Z,4.32
2023-05-10T17:33:58.087Z,4.28
2023-05-10T17:36:30.907Z,5.07
2023-05-10T17:39:04.511Z,5.10
2023-05-10T17:41:37.527Z,6.10
2023-05-10T17:44:10.350Z,7.13
2023-05-10T17:46:43.383Z,5.63
2023-05-10T17:49:17.928Z,5.88
2023-05-10T17:51:51.096Z,7.00
2023-05-10T17:54:24.012Z,5.78
2023-05-10T17:56:57.988Z,5.30
2023-05-10T17:59:30.928Z,7.82
2023-05-10T18:02:03.938Z,6.57
2023-05-10T18:04:59.968Z,7.60
2023-05-10T18:07:33.343Z,5.85
2023-05-10T18:10:07.251Z,6.93
2023-05-10T18:12:40.063Z,5.38
2023-05-10T18:15:12.964Z,5.63
2023-05-10T18:17:45.881Z,7.80
2023-05-10T18:20:20.371Z,5.13
2023-05-10T18:25:26.064Z,5.53
2023-05-10T18:27:59.195Z,8.63
2023-05-10T18:30:32.040Z,6.65
2023-05-10T18:33:04.966Z,7.05
2023-05-10T18:35:40.044Z,7.15
2023-05-10T18:38:13.423Z,8.85
2023-05-10T18:40:46.325Z,6.93
2023-05-10T18:43:19.172Z,7.97
2023-05-10T18:45:52.440Z,9.13
2023-05-10T18:48:25.473Z,8.52
2023-05-10T18:50:59.732Z,9.05
2023-05-10T18:53:33.699Z,8.00
2023-05-10T18:56:07.119Z,7.40
2023-05-10T18:58:40.184Z,7.90
2023-05-10T19:01:13.101Z,8.20
2023-05-10T19:03:46.979Z,8.02
2023-05-10T19:06:21.253Z,8.50
2023-05-10T19:08:54.308Z,8.50
2023-05-10T19:11:27.282Z,9.27
2023-05-10T19:14:00.124Z,9.38
2023-05-10T19:16:35.806Z,8.20
2023-05-10T19:19:09.102Z,7.47
2023-05-10T19:21:43.495Z,11.30
2023-05-10T19:24:16.601Z,9.10
2023-05-10T19:26:49.382Z,8.65
2023-05-10T19:29:23.030Z,8.13
2023-05-10T19:31:56.148Z,8.87
2023-05-10T19:34:29.063Z,9.48
2023-05-10T19:37:03.617Z,8.82
2023-05-10T19:39:36.592Z,9.00
2023-05-10T19:42:09.757Z,9.98
2023-05-10T19:44:42.714Z,9.30
2023-05-10T19:47:15.588Z,8.60
2023-05-10T19:49:48.589Z,12.15
2023-05-10T19:52:22.846Z,11.07
2023-05-10T19:54:55.722Z,12.57
2023-05-10T19:57:28.532Z,8.63
2023-05-10T20:00:01.421Z,8.93
2023-05-10T20:02:34.655Z,9.63
2023-05-10T20:05:08.755Z,10.23
2023-05-10T20:07:43.023Z,11.02
2023-05-10T20:10:17.583Z,8.52
2023-05-10T20:15:25.844Z,11.75
2023-05-10T20:17:58.702Z,10.98
2023-05-10T20:20:31.734Z,8.35
2023-05-10T20:23:06.026Z,11.30
2023-05-10T20:25:38.879Z,8.85
2023-05-10T20:28:13.072Z,8.80
2023-05-10T20:30:45.941Z,8.95
2023-05-10T20:33:19.025Z,10.40
2023-05-10T20:35:52.311Z,9.18
2023-05-10T20:38:26.555Z,9.93
2023-05-10T20:40:59.354Z,11.43
2023-05-10T20:43:32.532Z,11.38
2023-05-10T20:46:06.482Z,10.52
2023-05-10T20:48:39.472Z,12.63
2023-05-10T20:51:12.356Z,11.20
2023-05-10T20:53:46.627Z,11.02
2023-05-10T20:56:19.635Z,12.15
2023-05-10T20:58:52.485Z,12.40
2023-05-10T21:01:26.353Z,10.40
2023-05-10T21:03:59.217Z,11.05
2023-05-10T21:06:32.446Z,12.35
2023-05-10T21:09:07.046Z,11.32
2023-05-10T21:14:12.572Z,13.30
2023-05-10T21:16:45.418Z,9.13
2023-05-10T21:19:18.341Z,9.35
2023-05-10T21:21:51.201Z,10.95
2023-05-10T21:24:25.671Z,11.82
2023-05-10T21:26:58.494Z,10.32
2023-05-10T21:29:31.427Z,12.00
2023-05-10T21:32:04.345Z,12.57
2023-05-10T21:34:37.638Z,12.88
2023-05-10T21:37:10.676Z,13.90
2023-05-10T21:39:44.862Z,11.30
2023-05-10T21:42:17.753Z,13.55
2023-05-10T21:44:50.519Z,10.40
2023-05-10T21:47:23.364Z,13.45
2023-05-10T21:49:56.194Z,11.23
2023-05-10T21:52:29.012Z,12.55
2023-05-10T21:55:04.186Z,12.90
2023-05-10T21:57:37.524Z,12.55
2023-05-10T22:00:11.805Z,14.80
2023-05-10T22:02:45.541Z,12.40
2023-05-10T22:05:18.608Z,12.15
2023-05-10T22:07:51.380Z,15.10
2023-05-10T22:10:25.632Z,13.07
2023-05-10T22:12:59.580Z,12.07
2023-05-10T22:15:35.590Z,14.23
2023-05-10T22:18:09.301Z,12.68
2023-05-10T22:20:43.357Z,11.05
2023-05-10T22:23:16.301Z,10.52
2023-05-10T22:25:50.497Z,13.25
2023-05-10T22:28:23.263Z,13.45
2023-05-10T22:30:56.129Z,12.80
2023-05-10T22:33:29.029Z,12.45
2023-05-10T22:36:01.883Z,14.82
2023-05-10T22:38:34.914Z,12.93
2023-05-10T22:41:09.201Z,13.73
2023-05-10T22:43:42.093Z,13.18
2023-05-10T22:46:15.219Z,15.82
2023-05-10T22:48:49.247Z,14.43
2023-05-10T22:51:22.418Z,12.40
2023-05-10T22:53:55.358Z,15.35
2023-05-10T22:56:30.031Z,14.43
2023-05-10T22:59:02.955Z,14.32
2023-05-10T23:01:35.894Z,13.05
2023-05-10T23:04:08.771Z,14.90
2023-05-10T23:06:41.587Z,15.35
2023-05-10T23:09:14.414Z,17.27
2023-05-10T23:11:48.709Z,16.50
2023-05-10T23:14:21.683Z,14.93
2023-05-10T23:16:54.479Z,15.35
2023-05-10T23:19:27.280Z,17.33
2023-05-10T23:22:00.549Z,16.80
2023-05-10T23:24:33.901Z,14.25
2023-05-10T23:27:08.121Z,18.63
2023-05-10T23:29:41.032Z,19.67
2023-05-10T23:32:13.881Z,20.52
2023-05-10T23:34:46.757Z,18.27
2023-05-10T23:37:19.592Z,19.45
2023-05-10T23:39:52.628Z,16.48
2023-05-10T23:42:26.968Z,20.23
2023-05-10T23:44:59.753Z,20.38
2023-05-10T23:47:32.763Z,17.10
2023-05-10T23:50:06.442Z,15.88
2023-05-10T23:52:39.283Z,19.15
2023-05-10T23:55:12.540Z,21.80
2023-05-10T23:57:46.798Z,22.38
